Time;durP1;ratioP1;P1;durP2;ratioP2;P2;SDS_P1;SDS_P2;PMS_P1;PMS_P2;Temp;Humidity;BMP_temperature;BMP_pressure;BME280_temperature;BME280_humidity;BME280_pressure;Samples;Min_cycle;Max_cycle;Signal;HPM_P1;HPM_P2
2021/12/29 00:00:27;;;;;;;3.33;2.75;;;11.10;99.90;;;;;;5105485;28;20177;-70
2021/12/29 00:02:56;;;;;;;3.40;2.80;;;11.10;99.90;;;;;;5078196;28;20336;-69
2021/12/29 00:05:25;;;;;;;2.58;2.38;;;11.10;99.90;;;;;;5077177;28;20211;-68
2021/12/29 00:07:51;;;;;;;2.72;2.53;;;11.10;99.90;;;;;;5076715;28;20184;-69
2021/12/29 00:10:22;;;;;;;3.30;3.00;;;11.10;99.90;;;;;;5076119;28;20275;-69
2021/12/29 00:12:52;;;;;;;3.75;2.90;;;11.10;99.90;;;;;;5077131;28;20184;-70
2021/12/29 00:15:24;;;;;;;3.42;3.05;;;11.10;99.90;;;;;;5074732;28;20233;-68
2021/12/29 00:17:50;;;;;;;3.38;3.08;;;11.10;99.90;;;;;;5071926;28;20173;-69
2021/12/29 00:20:22;;;;;;;4.28;3.88;;;11.20;99.90;;;;;;5078758;28;20191;-71
2021/12/29 00:22:53;;;;;;;4.80;3.60;;;11.20;99.90;;;;;;5077695;28;20180;-71
2021/12/29 00:25:18;;;;;;;3.45;3.15;;;11.20;99.90;;;;;;5076495;28;20241;-71
2021/12/29 00:27:44;;;;;;;4.15;3.75;;;11.20;99.90;;;;;;5076627;28;20204;-70
2021/12/29 00:30:13;;;;;;;4.13;3.50;;;11.20;99.90;;;;;;5078615;28;20339;-72
2021/12/29 00:32:39;;;;;;;3.90;3.50;;;11.20;99.90;;;;;;5111616;28;20191;-70
2021/12/29 00:35:11;;;;;;;3.58;3.03;;;11.20;99.90;;;;;;5072750;28;20176;-68
2021/12/29 00:37:39;;;;;;;3.55;3.20;;;11.20;99.90;;;;;;5075408;28;20200;-71
2021/12/29 00:40:08;;;;;;;3.50;2.75;;;11.30;99.90;;;;;;5077231;28;20234;-73
2021/12/29 00:42:36;;;;;;;3.67;3.10;;;11.30;99.90;;;;;;5077769;28;20490;-73
2021/12/29 00:45:05;;;;;;;3.53;3.17;;;11.30;99.90;;;;;;5077173;28;20212;-73
2021/12/29 00:47:35;;;;;;;2.85;2.58;;;11.30;99.90;;;;;;5077707;28;20297;-73
2021/12/29 00:50:03;;;;;;;2.30;2.10;;;11.30;99.90;;;;;;5078935;28;20171;-68
2021/12/29 00:52:29;;;;;;;3.30;2.67;;;11.20;99.90;;;;;;5065434;28;20181;-73
2021/12/29 00:54:57;;;;;;;2.35;2.15;;;11.30;99.90;;;;;;5075670;28;20192;-71
2021/12/29 00:57:25;;;;;;;2.10;1.90;;;11.20;99.90;;;;;;5074799;28;20192;-72
2021/12/29 00:59:50;;;;;;;3.50;2.20;;;11.20;99.90;;;;;;5076627;28;20172;-72
2021/12/29 01:02:16;;;;;;;3.17;2.10;;;11.20;99.90;;;;;;5102699;28;20295;-72
2021/12/29 01:04:44;;;;;;;3.63;1.90;;;11.20;99.90;;;;;;5071546;28;20352;-72
2021/12/29 01:07:12;;;;;;;2.13;1.92;;;11.20;99.90;;;;;;5082403;28;20208;-72
2021/12/29 01:09:38;;;;;;;2.28;2.08;;;11.20;99.90;;;;;;5095337;28;20180;-72
2021/12/29 01:12:04;;;;;;;2.30;2.10;;;11.20;99.90;;;;;;5076436;28;20191;-72
2021/12/29 01:14:34;;;;;;;2.10;1.90;;;11.30;99.90;;;;;;5109081;28;20271;-71
2021/12/29 01:17:00;;;;;;;3.28;2.03;;;11.30;99.90;;;;;;5071871;28;20181;-72
2021/12/29 01:19:28;;;;;;;2.33;2.13;;;11.30;99.90;;;;;;5077078;28;20199;-73
2021/12/29 01:21:57;;;;;;;2.78;2.10;;;11.30;99.90;;;;;;5070932;28;20273;-72
2021/12/29 01:24:27;;;;;;;2.58;2.38;;;11.30;99.90;;;;;;5070323;28;20207;-72
2021/12/29 01:26:55;;;;;;;5.57;2.67;;;11.30;99.90;;;;;;5062842;28;20214;-73
2021/12/29 01:29:26;;;;;;;3.40;2.15;;;11.30;99.90;;;;;;5073984;28;20179;-72
2021/12/29 01:31:52;;;;;;;2.97;2.40;;;11.30;99.90;;;;;;5071574;28;20272;-73
2021/12/29 01:34:21;;;;;;;2.67;2.35;;;11.30;99.90;;;;;;5075117;28;20317;-73
2021/12/29 01:36:49;;;;;;;3.00;2.00;;;11.30;99.90;;;;;;5069691;28;20267;-74
2021/12/29 01:39:18;;;;;;;1.88;1.73;;;11.40;99.90;;;;;;5081896;28;20244;-71
2021/12/29 01:41:46;;;;;;;2.20;2.00;;;11.30;99.90;;;;;;5077217;28;20252;-69
2021/12/29 01:44:15;;;;;;;2.38;2.00;;;11.30;99.90;;;;;;5077278;28;20253;-74
2021/12/29 01:46:45;;;;;;;1.95;1.80;;;11.40;99.90;;;;;;5079779;28;20211;-70
2021/12/29 01:49:14;;;;;;;1.95;1.80;;;11.30;99.90;;;;;;5080471;28;20180;-75
2021/12/29 01:52:00;;;;;;;1.80;1.70;;;11.30;99.90;;;;;;5070200;28;20176;-73
2021/12/29 01:54:34;;;;;;;2.00;1.60;;;11.30;99.90;;;;;;5069068;28;20299;-75
2021/12/29 01:57:04;;;;;;;1.90;1.70;;;11.30;99.90;;;;;;5071937;28;20275;-72
2021/12/29 01:59:34;;;;;;;2.03;1.65;;;11.30;99.90;;;;;;5075081;28;20184;-70
2021/12/29 02:01:59;;;;;;;2.13;1.98;;;11.30;99.90;;;;;;5076183;28;20203;-75
2021/12/29 02:04:25;;;;;;;2.83;1.95;;;11.40;99.90;;;;;;5074501;28;20301;-74
2021/12/29 02:06:53;;;;;;;2.20;2.00;;;11.40;99.90;;;;;;5077349;28;20198;-75
2021/12/29 02:09:21;;;;;;;2.65;2.20;;;11.40;99.90;;;;;;5081307;28;20184;-73
2021/12/29 02:11:50;;;;;;;2.40;2.20;;;11.40;99.90;;;;;;5069190;28;20384;-75
2021/12/29 02:14:16;;;;;;;3.00;2.72;;;11.40;99.90;;;;;;5071262;28;20205;-72
2021/12/29 02:16:44;;;;;;;3.50;2.83;;;11.40;99.90;;;;;;5069747;28;20263;-75
2021/12/29 02:19:15;;;;;;;3.25;2.95;;;11.40;99.90;;;;;;5075296;28;20212;-74
2021/12/29 02:21:55;;;;;;;4.55;3.05;;;11.40;99.90;;;;;;5068503;28;20207;-73
2021/12/29 02:24:23;;;;;;;4.03;3.00;;;11.40;99.90;;;;;;5072084;28;20294;-75
2021/12/29 02:26:55;;;;;;;3.30;2.60;;;11.50;99.90;;;;;;5096932;28;20169;-72
2021/12/29 02:29:20;;;;;;;3.67;2.90;;;11.50;99.90;;;;;;5074346;28;20193;-73
2021/12/29 02:31:53;;;;;;;3.25;2.92;;;11.50;99.90;;;;;;5074928;28;20254;-74
2021/12/29 02:34:24;;;;;;;4.57;2.85;;;11.50;99.90;;;;;;5095325;28;20184;-75
2021/12/29 02:36:50;;;;;;;3.53;3.00;;;11.50;99.90;;;;;;5068894;28;20180;-72
2021/12/29 02:39:21;;;;;;;3.85;3.13;;;11.50;99.90;;;;;;5075490;28;20175;-75
2021/12/29 02:41:52;;;;;;;3.22;2.92;;;11.50;99.90;;;;;;5075125;28;20209;-74
2021/12/29 02:44:29;;;;;;;3.10;2.70;;;11.50;99.90;;;;;;5078120;28;20584;-74
2021/12/29 02:46:57;;;;;;;4.28;2.78;;;11.50;99.90;;;;;;5099929;28;20243;-74
2021/12/29 02:49:26;;;;;;;3.53;2.97;;;11.50;99.90;;;;;;5077054;28;20294;-74
2021/12/29 02:51:52;;;;;;;3.30;3.00;;;11.50;99.90;;;;;;5078094;28;20240;-74
2021/12/29 02:54:21;;;;;;;3.22;2.90;;;11.50;99.90;;;;;;5074388;28;20176;-67
2021/12/29 02:56:48;;;;;;;3.30;3.00;;;11.60;99.90;;;;;;5073881;28;20263;-74
2021/12/29 02:59:15;;;;;;;3.20;2.90;;;11.60;99.90;;;;;;5071839;28;20183;-71
2021/12/29 03:01:46;;;;;;;2.97;2.78;;;11.50;99.90;;;;;;5073006;28;20331;-72
2021/12/29 03:04:17;;;;;;;4.20;3.00;;;11.50;99.90;;;;;;5086067;28;20180;-68
2021/12/29 03:06:42;;;;;;;4.65;2.90;;;11.50;99.90;;;;;;5072424;28;20172;-71
2021/12/29 03:09:11;;;;;;;3.50;3.00;;;11.50;99.90;;;;;;5073753;28;20412;-70
2021/12/29 03:11:39;;;;;;;4.38;3.33;;;11.50;99.90;;;;;;5067564;28;20172;-70
2021/12/29 03:14:09;;;;;;;3.30;2.78;;;11.50;99.90;;;;;;5073872;28;20183;-70
2021/12/29 03:16:38;;;;;;;3.53;3.22;;;11.50;99.90;;;;;;5073105;28;20261;-68
2021/12/29 03:19:05;;;;;;;3.35;2.95;;;11.50;99.90;;;;;;5077024;28;20172;-67
2021/12/29 03:21:32;;;;;;;4.40;2.78;;;11.50;99.90;;;;;;5073939;28;20194;-68
2021/12/29 03:24:01;;;;;;;3.40;3.10;;;11.50;99.90;;;;;;5074513;28;20903;-69
2021/12/29 03:26:27;;;;;;;2.78;2.58;;;11.50;99.90;;;;;;5088330;28;20171;-69
2021/12/29 03:28:57;;;;;;;3.33;3.03;;;11.40;99.90;;;;;;5076759;28;20211;-70
2021/12/29 03:31:23;;;;;;;3.13;2.80;;;11.40;99.90;;;;;;5075220;28;20214;-70
2021/12/29 03:33:49;;;;;;;3.53;2.97;;;11.40;99.90;;;;;;5074431;28;20226;-70
2021/12/29 03:36:16;;;;;;;3.55;2.80;;;11.30;99.90;;;;;;5074540;28;20312;-70
2021/12/29 03:38:45;;;;;;;3.42;3.00;;;11.30;99.90;;;;;;5075268;28;20176;-69
2021/12/29 03:41:15;;;;;;;4.55;2.90;;;11.30;99.90;;;;;;5111204;28;20275;-69
2021/12/29 03:43:43;;;;;;;3.22;2.80;;;11.30;99.90;;;;;;5074701;28;20219;-70
2021/12/29 03:46:09;;;;;;;3.95;2.60;;;11.30;99.90;;;;;;5079732;28;20254;-69
2021/12/29 03:48:37;;;;;;;3.63;2.50;;;11.20;99.90;;;;;;5073090;28;20308;-69
2021/12/29 03:51:05;;;;;;;3.33;2.65;;;11.20;99.90;;;;;;5079020;28;20180;-70
2021/12/29 03:53:31;;;;;;;3.38;2.72;;;11.20;99.90;;;;;;5076456;28;20203;-70
2021/12/29 03:56:02;;;;;;;2.60;2.40;;;11.20;99.90;;;;;;5080387;28;20186;-69
2021/12/29 03:58:28;;;;;;;3.20;2.45;;;11.20;99.90;;;;;;5075723;28;20290;-69
2021/12/29 04:00:59;;;;;;;2.97;2.40;;;11.20;99.90;;;;;;5108482;28;20176;-70
2021/12/29 04:03:25;;;;;;;2.67;2.28;;;11.20;99.90;;;;;;5079017;28;20180;-70
2021/12/29 04:05:51;;;;;;;3.63;2.50;;;11.20;99.90;;;;;;5075688;28;20188;-69
2021/12/29 04:08:16;;;;;;;3.70;2.58;;;11.20;99.90;;;;;;5105239;27;20195;-69
2021/12/29 04:10:42;;;;;;;3.17;2.20;;;11.30;99.90;;;;;;5076270;28;20176;-69
2021/12/29 04:13:12;;;;;;;2.47;2.28;;;11.20;99.90;;;;;;5078648;28;20176;-69
2021/12/29 04:15:38;;;;;;;2.95;1.98;;;11.20;99.90;;;;;;5077977;28;20176;-70
2021/12/29 04:18:15;;;;;;;3.38;2.65;;;11.30;99.90;;;;;;5075945;28;20183;-67
2021/12/29 04:21:03;;;;;;;2.45;2.10;;;11.30;99.90;;;;;;5078965;28;20384;-66
2021/12/29 04:23:32;;;;;;;3.10;2.20;;;11.20;99.90;;;;;;5079892;28;20366;-67
2021/12/29 04:26:01;;;;;;;3.00;2.25;;;11.20;99.90;;;;;;5076861;28;20192;-67
2021/12/29 04:28:27;;;;;;;2.80;2.30;;;11.20;99.90;;;;;;5076233;28;20187;-68
2021/12/29 04:31:05;;;;;;;2.35;2.15;;;11.20;99.90;;;;;;5101185;28;20236;-67
2021/12/29 04:33:36;;;;;;;2.78;2.25;;;11.20;99.90;;;;;;5075483;28;20196;-67
2021/12/29 04:36:04;;;;;;;2.10;1.90;;;11.20;99.90;;;;;;5084226;28;20177;-66
2021/12/29 04:38:30;;;;;;;2.00;1.88;;;11.20;99.90;;;;;;5077203;28;20207;-67
2021/12/29 04:40:56;;;;;;;2.65;2.22;;;11.20;99.90;;;;;;5110715;28;20231;-67
2021/12/29 04:43:25;;;;;;;2.97;1.95;;;11.20;99.90;;;;;;5108496;28;20176;-67
2021/12/29 04:45:51;;;;;;;4.03;2.60;;;11.20;99.90;;;;;;5112376;27;20199;-67
2021/12/29 04:48:18;;;;;;;3.28;2.08;;;11.20;99.90;;;;;;5102941;28;20187;-67
2021/12/29 04:51:05;;;;;;;2.63;2.30;;;11.20;99.90;;;;;;5077048;28;20184;-67
2021/12/29 04:53:33;;;;;;;2.53;2.33;;;11.20;99.90;;;;;;5103785;28;20203;-67
2021/12/29 04:56:01;;;;;;;2.45;2.10;;;11.30;99.90;;;;;;5074665;28;20176;-67
2021/12/29 04:58:29;;;;;;;2.90;2.03;;;11.20;99.90;;;;;;5110158;27;20187;-67
2021/12/29 05:01:00;;;;;;;2.45;2.25;;;11.30;99.90;;;;;;5100044;28;20173;-67
2021/12/29 05:03:26;;;;;;;4.32;2.10;;;11.30;99.90;;;;;;5076459;28;20203;-66
2021/12/29 05:08:24;;;;;;;2.95;2.30;;;11.30;99.90;;;;;;5074537;28;20321;-67
2021/12/29 05:08:40;;;;;;;2.58;2.38;;;11.30;99.90;;;;;;5089355;28;20172;-67
2021/12/29 05:11:08;;;;;;;2.45;2.25;;;11.30;99.90;;;;;;5090115;28;20359;-67
2021/12/29 05:13:36;;;;;;;2.50;2.30;;;11.30;99.90;;;;;;5075516;28;20268;-67
2021/12/29 05:16:04;;;;;;;3.40;2.42;;;11.30;99.90;;;;;;5077043;28;20200;-67
2021/12/29 05:18:35;;;;;;;3.55;2.67;;;11.30;99.90;;;;;;5083530;28;20183;-67
2021/12/29 05:21:06;;;;;;;2.92;2.50;;;11.30;99.90;;;;;;5089162;28;20200;-67
2021/12/29 05:23:32;;;;;;;3.58;3.20;;;11.30;99.90;;;;;;5074909;28;20221;-67
2021/12/29 05:25:57;;;;;;;3.47;3.17;;;11.20;99.90;;;;;;5080320;28;20480;-66
2021/12/29 05:28:26;;;;;;;3.65;3.30;;;11.20;99.90;;;;;;5074681;28;20196;-67
2021/12/29 05:30:55;;;;;;;4.50;3.40;;;11.20;99.90;;;;;;5076192;28;20172;-66
2021/12/29 05:33:23;;;;;;;3.00;2.75;;;11.20;99.90;;;;;;5076038;28;20321;-66
2021/12/29 05:35:49;;;;;;;4.90;3.63;;;11.20;99.90;;;;;;5075667;28;20190;-68
2021/12/29 05:38:14;;;;;;;3.58;3.25;;;11.10;99.90;;;;;;5077521;28;20271;-67
2021/12/29 05:40:40;;;;;;;3.58;2.80;;;11.10;99.90;;;;;;5076485;28;20202;-67
2021/12/29 05:43:08;;;;;;;4.18;3.55;;;11.10;99.90;;;;;;5074865;28;20305;-69
2021/12/29 05:45:34;;;;;;;3.88;3.47;;;11.00;99.90;;;;;;5074157;28;20294;-69
2021/12/29 05:48:01;;;;;;;3.90;3.60;;;11.00;99.90;;;;;;5074862;28;20282;-67
2021/12/29 05:50:29;;;;;;;4.68;3.78;;;11.00;99.90;;;;;;5074291;28;20195;-68
2021/12/29 05:52:56;;;;;;;4.25;3.70;;;11.00;99.90;;;;;;5071592;28;20177;-67
2021/12/29 05:55:25;;;;;;;4.45;3.80;;;11.00;99.90;;;;;;5076808;28;20274;-67
2021/12/29 05:57:50;;;;;;;3.92;3.45;;;11.00;99.90;;;;;;5074127;28;20202;-67
2021/12/29 06:00:18;;;;;;;4.40;4.00;;;11.10;99.90;;;;;;5073988;28;20263;-67
2021/12/29 06:02:45;;;;;;;4.07;3.67;;;11.10;99.90;;;;;;5075951;28;20200;-67
2021/12/29 06:05:11;;;;;;;4.68;4.28;;;11.10;99.90;;;;;;5074267;28;20203;-69
2021/12/29 06:07:38;;;;;;;4.40;4.00;;;11.10;99.90;;;;;;5071394;28;20180;-69
2021/12/29 06:10:06;;;;;;;4.90;4.40;;;11.10;99.90;;;;;;5075775;28;20361;-69
2021/12/29 06:12:31;;;;;;;4.82;4.32;;;11.10;99.90;;;;;;5072761;28;20180;-69
2021/12/29 06:14:59;;;;;;;4.93;4.15;;;11.10;99.90;;;;;;5075393;28;20191;-67
2021/12/29 06:17:25;;;;;;;5.03;4.53;;;11.10;99.90;;;;;;5077167;28;20171;-67
2021/12/29 06:19:51;;;;;;;5.10;4.60;;;11.10;99.90;;;;;;5073474;28;20180;-68
2021/12/29 06:22:16;;;;;;;6.25;4.72;;;11.10;99.90;;;;;;5075585;28;20228;-67
2021/12/29 06:24:43;;;;;;;7.63;5.60;;;11.20;99.90;;;;;;5069506;28;20253;-67
2021/12/29 06:27:09;;;;;;;5.30;4.80;;;11.20;99.90;;;;;;5073693;28;20168;-67
2021/12/29 06:29:36;;;;;;;4.75;4.25;;;11.20;99.90;;;;;;5073760;28;20310;-68
2021/12/29 06:32:03;;;;;;;4.85;4.45;;;11.20;99.90;;;;;;5074464;28;20221;-68
2021/12/29 06:34:30;;;;;;;6.28;4.15;;;11.20;99.90;;;;;;5074223;28;20175;-68
2021/12/29 06:36:58;;;;;;;4.72;4.32;;;11.20;99.90;;;;;;5077830;28;20207;-68
2021/12/29 06:39:24;;;;;;;4.43;4.03;;;11.20;99.90;;;;;;5108705;28;20183;-68
2021/12/29 06:41:50;;;;;;;5.57;4.88;;;11.20;99.90;;;;;;5066131;28;20355;-69
2021/12/29 06:44:20;;;;;;;5.40;4.90;;;11.20;99.90;;;;;;5107663;28;20278;-69
2021/12/29 06:46:48;;;;;;;5.00;4.50;;;11.20;99.90;;;;;;5073397;28;20196;-68
2021/12/29 06:49:16;;;;;;;5.15;4.50;;;11.20;99.90;;;;;;5072558;28;20182;-68
2021/12/29 06:51:41;;;;;;;5.05;4.30;;;11.20;99.90;;;;;;5101705;28;20179;-68
2021/12/29 06:54:07;;;;;;;5.22;4.05;;;11.20;99.90;;;;;;5075557;28;20197;-68
2021/12/29 06:56:32;;;;;;;4.75;4.22;;;11.20;99.90;;;;;;5072728;28;20183;-68
2021/12/29 06:58:58;;;;;;;4.10;3.70;;;11.20;99.90;;;;;;5074956;28;20211;-68
2021/12/29 07:01:26;;;;;;;5.00;3.78;;;11.20;99.90;;;;;;5076682;28;20179;-68
2021/12/29 07:03:51;;;;;;;3.90;3.45;;;11.20;99.90;;;;;;5071984;28;20192;-68
2021/12/29 07:06:17;;;;;;;4.05;3.65;;;11.20;99.90;;;;;;5070341;28;20180;-68
2021/12/29 07:08:43;;;;;;;3.90;3.55;;;11.30;99.90;;;;;;5073964;28;20221;-68
2021/12/29 07:11:10;;;;;;;4.25;3.80;;;11.20;99.90;;;;;;5073835;28;20202;-68
2021/12/29 07:13:36;;;;;;;4.57;3.50;;;11.20;99.90;;;;;;5073650;28;20270;-68
2021/12/29 07:16:04;;;;;;;4.22;3.22;;;11.30;99.90;;;;;;5078082;28;20267;-68
2021/12/29 07:18:34;;;;;;;3.78;3.25;;;11.30;99.90;;;;;;5070590;28;20206;-69
2021/12/29 07:21:00;;;;;;;4.72;3.35;;;11.30;99.90;;;;;;5068052;28;20262;-68
2021/12/29 07:23:26;;;;;;;3.45;3.08;;;11.30;99.90;;;;;;5075657;28;20224;-68
2021/12/29 07:25:51;;;;;;;5.82;2.92;;;11.30;99.90;;;;;;5085331;28;20195;-68
2021/12/29 07:28:20;;;;;;;3.00;2.70;;;11.30;99.90;;;;;;5071189;28;20191;-68
2021/12/29 07:30:50;;;;;;;2.95;2.65;;;11.30;99.90;;;;;;5073076;28;20192;-68
2021/12/29 07:33:16;;;;;;;3.10;2.80;;;11.30;99.90;;;;;;5068676;28;20469;-68
2021/12/29 07:35:46;;;;;;;3.65;2.80;;;11.30;99.90;;;;;;5101282;28;20189;-68
2021/12/29 07:38:14;;;;;;;2.67;2.20;;;11.30;99.90;;;;;;5075563;28;20180;-68
2021/12/29 07:40:45;;;;;;;4.00;2.75;;;11.40;99.90;;;;;;5081162;28;20172;-68
2021/12/29 07:43:13;;;;;;;2.97;2.70;;;11.30;99.90;;;;;;5074648;28;20175;-68
2021/12/29 07:45:42;;;;;;;3.10;2.80;;;11.30;99.90;;;;;;5072724;28;20198;-67
2021/12/29 07:48:13;;;;;;;4.28;2.85;;;11.30;99.90;;;;;;5069037;28;20175;-68
2021/12/29 07:50:39;;;;;;;2.90;2.60;;;11.30;99.90;;;;;;5072277;28;20273;-68
2021/12/29 07:53:07;;;;;;;3.25;2.75;;;11.30;99.90;;;;;;5070992;28;20176;-68
2021/12/29 07:55:35;;;;;;;2.70;2.42;;;11.30;99.90;;;;;;5072314;28;20180;-68
2021/12/29 07:58:01;;;;;;;2.65;2.42;;;11.30;99.90;;;;;;5073694;28;20195;-68
2021/12/29 08:00:30;;;;;;;3.15;2.15;;;11.30;99.90;;;;;;5076241;28;20187;-68
2021/12/29 08:02:55;;;;;;;2.47;2.28;;;11.30;99.90;;;;;;5069880;28;20180;-68
2021/12/29 08:05:22;;;;;;;3.15;2.13;;;11.30;99.90;;;;;;5075547;28;20528;-68
2021/12/29 08:07:52;;;;;;;2.78;2.20;;;11.40;99.90;;;;;;5070333;28;20202;-68
2021/12/29 08:10:21;;;;;;;2.97;2.10;;;11.40;99.90;;;;;;5069370;28;20193;-69
2021/12/29 08:12:47;;;;;;;2.25;2.05;;;11.40;99.90;;;;;;5071285;28;20191;-68
2021/12/29 08:15:17;;;;;;;2.63;2.30;;;11.40;99.90;;;;;;5074980;28;20176;-68
2021/12/29 08:17:44;;;;;;;2.13;1.92;;;11.40;99.90;;;;;;5107827;28;20442;-68
2021/12/29 08:20:10;;;;;;;2.40;1.80;;;11.40;99.90;;;;;;5072335;28;20214;-68
2021/12/29 08:22:40;;;;;;;2.35;1.65;;;11.40;99.90;;;;;;5077386;28;20180;-68
2021/12/29 08:25:09;;;;;;;1.98;1.77;;;11.40;99.90;;;;;;5068220;28;20222;-67
2021/12/29 08:27:34;;;;;;;1.90;1.70;;;11.40;99.90;;;;;;5068091;28;20208;-68
2021/12/29 08:30:00;;;;;;;3.22;1.77;;;11.40;99.90;;;;;;5077860;28;20176;-68
2021/12/29 08:32:26;;;;;;;3.40;1.80;;;11.50;99.90;;;;;;5073950;28;20172;-68
2021/12/29 08:34:57;;;;;;;1.90;1.63;;;11.50;99.90;;;;;;5072786;28;20195;-68
2021/12/29 08:37:23;;;;;;;2.10;1.58;;;11.50;99.90;;;;;;5083268;28;20371;-68
2021/12/29 08:39:55;;;;;;;2.05;1.83;;;11.50;99.90;;;;;;5068877;28;20227;-68
2021/12/29 08:42:22;;;;;;;3.85;1.90;;;11.50;99.90;;;;;;5068927;28;20191;-68
2021/12/29 08:44:47;;;;;;;2.38;1.55;;;11.50;99.90;;;;;;5073290;28;20241;-68
2021/12/29 08:47:13;;;;;;;1.77;1.67;;;11.60;99.90;;;;;;5073895;28;20269;-68
2021/12/29 08:49:41;;;;;;;2.75;1.88;;;11.60;99.90;;;;;;5075522;28;20194;-68
2021/12/29 08:52:09;;;;;;;2.10;1.90;;;11.60;99.90;;;;;;5070378;28;20195;-67
2021/12/29 08:54:37;;;;;;;3.45;2.17;;;11.60;99.90;;;;;;5073578;28;20185;-69
2021/12/29 08:57:03;;;;;;;2.30;2.10;;;11.70;99.90;;;;;;5075488;28;20247;-68
2021/12/29 08:59:34;;;;;;;4.32;1.73;;;11.70;99.90;;;;;;5077688;28;20374;-68
2021/12/29 09:02:00;;;;;;;4.18;1.75;;;11.70;99.90;;;;;;5074562;28;20187;-68
2021/12/29 09:04:30;;;;;;;2.50;1.92;;;11.70;99.90;;;;;;5084800;28;20206;-68
2021/12/29 09:06:56;;;;;;;2.33;1.80;;;11.80;99.90;;;;;;5075173;28;20207;-68
2021/12/29 09:09:22;;;;;;;2.30;1.90;;;11.80;99.90;;;;;;5079230;28;20180;-68
2021/12/29 09:11:48;;;;;;;3.15;1.85;;;11.80;99.90;;;;;;5077632;28;20271;-68
2021/12/29 09:14:14;;;;;;;2.60;2.03;;;11.70;99.90;;;;;;5076152;28;20283;-68
2021/12/29 09:16:40;;;;;;;3.63;2.40;;;11.80;99.90;;;;;;5072959;28;20258;-68
2021/12/29 09:19:11;;;;;;;2.20;1.98;;;11.80;99.90;;;;;;5075542;28;20180;-67
2021/12/29 09:21:38;;;;;;;4.13;2.47;;;11.80;99.90;;;;;;5072888;28;20196;-68
2021/12/29 09:24:05;;;;;;;2.40;2.17;;;11.70;99.90;;;;;;5076096;28;20275;-68
2021/12/29 09:26:30;;;;;;;3.67;2.75;;;11.70;99.90;;;;;;5070730;28;20182;-68
2021/12/29 09:28:58;;;;;;;3.65;2.50;;;11.70;99.90;;;;;;5079249;28;20259;-67
2021/12/29 09:31:24;;;;;;;3.15;2.45;;;11.70;99.90;;;;;;5065769;28;20176;-67
2021/12/29 09:33:52;;;;;;;3.53;2.83;;;11.70;99.90;;;;;;5082163;28;20217;-68
2021/12/29 09:36:20;;;;;;;3.90;2.42;;;11.70;99.90;;;;;;5078055;28;20176;-68
2021/12/29 09:38:46;;;;;;;3.00;2.70;;;11.70;99.90;;;;;;5074465;28;20317;-68
2021/12/29 09:41:15;;;;;;;3.85;3.05;;;11.70;99.90;;;;;;5076352;28;20253;-69
2021/12/29 09:43:50;;;;;;;4.05;3.10;;;11.70;99.90;;;;;;5077673;28;20176;-68
2021/12/29 09:46:20;;;;;;;2.95;2.65;;;11.70;99.90;;;;;;5072331;28;20183;-68
2021/12/29 09:48:45;;;;;;;3.50;2.55;;;11.70;99.90;;;;;;5073403;28;20195;-68
2021/12/29 09:51:17;;;;;;;3.92;2.97;;;11.70;99.90;;;;;;5077850;28;20176;-68
2021/12/29 09:53:46;;;;;;;3.85;2.85;;;11.70;99.90;;;;;;5073820;28;20171;-68
2021/12/29 09:56:14;;;;;;;4.85;3.03;;;11.70;99.90;;;;;;5071308;28;20206;-68
2021/12/29 09:58:40;;;;;;;3.25;2.35;;;11.70;99.90;;;;;;5082735;28;20183;-68
2021/12/29 10:01:10;;;;;;;3.55;2.83;;;11.70;99.90;;;;;;5091196;28;20184;-68
2021/12/29 10:03:39;;;;;;;4.65;3.10;;;11.70;99.90;;;;;;5074452;28;20181;-70
2021/12/29 10:06:09;;;;;;;3.08;2.78;;;11.70;99.90;;;;;;5065503;28;20172;-68
2021/12/29 10:08:40;;;;;;;4.30;3.47;;;11.70;99.90;;;;;;5073315;28;20200;-68
2021/12/29 10:11:20;;;;;;;3.65;3.30;;;11.70;99.90;;;;;;5068876;28;20173;-68
2021/12/29 10:13:50;;;;;;;4.40;3.45;;;11.80;99.90;;;;;;5074709;28;20171;-68
2021/12/29 10:16:20;;;;;;;5.25;3.50;;;11.80;99.90;;;;;;5074101;28;20196;-68
2021/12/29 10:18:53;;;;;;;4.18;3.08;;;11.80;99.90;;;;;;5069308;28;20191;-68
2021/12/29 10:21:25;;;;;;;4.47;3.17;;;11.80;99.90;;;;;;5075848;28;20187;-68
2021/12/29 10:23:53;;;;;;;3.97;3.05;;;11.80;99.90;;;;;;5070835;28;20231;-68
2021/12/29 10:26:30;;;;;;;3.20;2.90;;;11.90;99.90;;;;;;5085652;28;20194;-67
2021/12/29 10:29:00;;;;;;;3.13;2.80;;;11.90;99.90;;;;;;5074546;28;20207;-68
2021/12/29 10:31:32;;;;;;;3.63;2.80;;;11.90;99.90;;;;;;5076621;28;20271;-68
2021/12/29 10:34:05;;;;;;;3.25;2.72;;;12.00;99.90;;;;;;5081365;28;20173;-68
2021/12/29 10:37:00;;;;;;;3.05;2.75;;;12.10;99.90;;;;;;5073531;28;20356;-68
2021/12/29 10:39:27;;;;;;;3.75;2.80;;;12.10;99.90;;;;;;5067027;28;20275;-68
2021/12/29 10:42:03;;;;;;;3.28;2.97;;;12.20;99.90;;;;;;5085713;28;20192;-68
2021/12/29 10:44:31;;;;;;;4.55;3.03;;;12.30;99.90;;;;;;5079276;28;20235;-68
2021/12/29 10:46:59;;;;;;;3.28;2.97;;;12.40;99.90;;;;;;5104444;28;20258;-65
2021/12/29 10:49:29;;;;;;;2.95;2.60;;;12.50;99.90;;;;;;5076319;28;20188;-66
2021/12/29 10:52:01;;;;;;;3.30;2.33;;;12.70;99.90;;;;;;5102510;28;20183;-67
2021/12/29 10:54:29;;;;;;;3.15;2.50;;;12.90;99.90;;;;;;5078168;28;20195;-68
2021/12/29 10:57:05;;;;;;;2.75;2.40;;;13.10;99.90;;;;;;5071515;28;20199;-68
2021/12/29 10:59:35;;;;;;;2.55;2.35;;;13.40;99.90;;;;;;5075040;28;20211;-68
2021/12/29 11:02:05;;;;;;;3.60;2.70;;;13.60;99.90;;;;;;5071642;28;20196;-66
2021/12/29 11:04:31;;;;;;;2.08;1.98;;;13.80;99.90;;;;;;5066895;28;20200;-68
2021/12/29 11:06:57;;;;;;;3.15;2.00;;;13.90;99.90;;;;;;5101096;28;20180;-66
2021/12/29 11:09:28;;;;;;;2.72;2.15;;;14.00;99.90;;;;;;5071860;28;20191;-66
2021/12/29 11:11:55;;;;;;;2.25;1.70;;;14.10;99.90;;;;;;5071578;28;20211;-67
2021/12/29 11:14:33;;;;;;;2.75;1.70;;;14.10;99.90;;;;;;5068988;28;20321;-66
2021/12/29 11:17:07;;;;;;;2.33;1.63;;;14.10;99.90;;;;;;5070512;28;20199;-67
2021/12/29 11:19:34;;;;;;;2.75;1.40;;;14.10;99.90;;;;;;5069386;28;20275;-67
2021/12/29 11:22:18;;;;;;;1.60;1.50;;;14.10;99.90;;;;;;5070500;28;20176;-67
2021/12/29 11:24:55;;;;;;;2.00;1.65;;;14.20;99.90;;;;;;5097525;28;20260;-66
2021/12/29 11:27:25;;;;;;;2.25;1.70;;;14.20;99.90;;;;;;5100603;28;20186;-67
2021/12/29 11:29:55;;;;;;;1.52;1.30;;;14.20;99.90;;;;;;5107223;28;20274;-67
2021/12/29 11:32:28;;;;;;;2.20;1.33;;;14.30;99.90;;;;;;5073759;28;20245;-67
2021/12/29 11:35:00;;;;;;;2.95;2.20;;;14.30;99.90;;;;;;5067369;28;20195;-67
2021/12/29 11:37:28;;;;;;;3.15;1.88;;;14.30;99.90;;;;;;5073874;28;20321;-67
2021/12/29 11:39:54;;;;;;;2.38;1.75;;;14.30;99.90;;;;;;5074573;28;20180;-67
2021/12/29 11:42:20;;;;;;;2.53;1.50;;;14.30;99.90;;;;;;5065751;28;20253;-67
2021/12/29 11:44:49;;;;;;;1.80;1.30;;;14.20;99.90;;;;;;5073872;28;20253;-67
2021/12/29 11:47:15;;;;;;;1.58;1.35;;;14.20;99.90;;;;;;5074584;28;20203;-66
2021/12/29 11:49:43;;;;;;;1.95;1.25;;;14.20;99.90;;;;;;5070781;28;20176;-67
2021/12/29 11:52:08;;;;;;;2.03;1.25;;;14.20;99.90;;;;;;5101973;28;20192;-67
2021/12/29 11:54:41;;;;;;;1.35;1.20;;;14.10;99.90;;;;;;5066476;28;20271;-67
2021/12/29 11:57:21;;;;;;;1.67;1.35;;;14.00;99.90;;;;;;5077404;28;20237;-67
2021/12/29 11:59:49;;;;;;;2.78;1.30;;;13.90;99.90;;;;;;5079566;28;20207;-68
2021/12/29 12:02:26;;;;;;;1.65;1.27;;;13.80;99.90;;;;;;5077304;28;20179;-66
2021/12/29 12:05:14;;;;;;;1.80;1.20;;;13.70;99.90;;;;;;5075653;28;20204;-68
2021/12/29 12:07:45;;;;;;;1.67;1.25;;;13.60;99.90;;;;;;5072567;28;20181;-68
2021/12/29 12:10:28;;;;;;;2.33;1.30;;;13.50;99.90;;;;;;5075037;28;20171;-67
2021/12/29 12:12:57;;;;;;;1.92;1.17;;;13.50;99.90;;;;;;5075981;28;20192;-65
2021/12/29 12:15:37;;;;;;;1.55;1.10;;;13.40;99.90;;;;;;5076792;28;20184;-68
2021/12/29 12:18:08;;;;;;;1.98;1.05;;;13.40;99.90;;;;;;5070563;28;21010;-67
2021/12/29 12:20:44;;;;;;;2.13;1.02;;;13.40;99.90;;;;;;5066733;28;20171;-68
2021/12/29 12:23:22;;;;;;;2.92;1.17;;;13.30;99.90;;;;;;5077815;28;20186;-68
2021/12/29 12:25:48;;;;;;;1.60;0.90;;;13.30;99.90;;;;;;5075426;28;20203;-67
2021/12/29 12:28:21;;;;;;;1.00;0.82;;;13.30;99.90;;;;;;5077476;28;20180;-67
2021/12/29 12:30:51;;;;;;;1.60;0.90;;;13.30;99.90;;;;;;5077600;28;20180;-67
2021/12/29 12:33:26;;;;;;;1.27;0.90;;;13.20;99.90;;;;;;5077285;28;20183;-66
2021/12/29 12:35:56;;;;;;;0.73;0.70;;;13.20;99.90;;;;;;5078518;28;20183;-67
2021/12/29 12:38:36;;;;;;;1.13;0.70;;;13.20;99.90;;;;;;5074071;28;20204;-67
2021/12/29 12:41:06;;;;;;;1.75;1.00;;;13.20;99.90;;;;;;5072872;28;20206;-67
2021/12/29 12:43:49;;;;;;;1.02;0.80;;;13.30;99.90;;;;;;5087385;28;20314;-66
2021/12/29 12:46:27;;;;;;;1.02;0.80;;;13.20;99.90;;;;;;5074713;28;20211;-67
2021/12/29 12:48:53;;;;;;;2.17;0.82;;;13.20;99.90;;;;;;5078809;28;20175;-66
2021/12/29 12:51:22;;;;;;;1.17;0.70;;;13.20;99.90;;;;;;5076176;28;20289;-67
2021/12/29 12:53:48;;;;;;;1.23;0.70;;;13.20;99.90;;;;;;5076347;28;20172;-66
2021/12/29 12:56:17;;;;;;;1.42;0.82;;;13.20;99.90;;;;;;5077387;28;20176;-67